Time;durP1;ratioP1;P1;durP2;ratioP2;P2;SDS_P1;SDS_P2;PMS_P1;PMS_P2;Temp;Humidity;BMP_temperature;BMP_pressure;BME280_temperature;BME280_humidity;BME280_pressure;Samples;Min_cycle;Max_cycle;Signal;HPM_P1;HPM_P2
2023/04/21 00:00:12;;;;;;;20.70;13.20;;;9.40;99.90;;;;;;4138894;28;20093;-61
2023/04/21 00:02:14;;;;;;;18.15;13.90;;;9.40;99.90;;;;;;4138416;28;20393;-60
2023/04/21 00:04:16;;;;;;;20.75;13.13;;;9.40;99.90;;;;;;4140989;28;20036;-60
2023/04/21 00:06:21;;;;;;;19.33;13.87;;;9.40;99.90;;;;;;4134670;28;20042;-62
2023/04/21 00:08:22;;;;;;;21.55;13.80;;;9.40;99.90;;;;;;4141817;28;20038;-60
2023/04/21 00:10:22;;;;;;;18.42;13.70;;;9.40;99.90;;;;;;4142469;28;20026;-60
2023/04/21 00:12:23;;;;;;;21.00;14.77;;;9.30;99.90;;;;;;4136082;28;20469;-60
2023/04/21 00:14:23;;;;;;;19.88;13.88;;;9.30;99.90;;;;;;4142277;28;20088;-59
2023/04/21 00:16:24;;;;;;;18.63;12.98;;;9.20;99.90;;;;;;4137516;28;20057;-60
2023/04/21 00:18:26;;;;;;;17.20;11.93;;;9.20;99.90;;;;;;4141704;28;20069;-60
2023/04/21 00:20:27;;;;;;;20.10;13.83;;;9.30;99.90;;;;;;4137434;28;20038;-59
2023/04/21 00:22:27;;;;;;;20.52;14.25;;;9.30;99.90;;;;;;4141866;28;20437;-59
2023/04/21 00:24:28;;;;;;;20.98;13.20;;;9.30;99.90;;;;;;4141880;28;20113;-59
2023/04/21 00:26:28;;;;;;;19.02;12.95;;;9.30;99.90;;;;;;4143299;28;20026;-59
2023/04/21 00:28:29;;;;;;;23.08;14.00;;;9.30;99.90;;;;;;4138071;28;20065;-59
2023/04/21 00:30:30;;;;;;;18.52;12.80;;;9.30;99.90;;;;;;4135863;28;20065;-59
2023/04/21 00:32:30;;;;;;;19.60;13.18;;;9.30;99.90;;;;;;4143489;28;20045;-59
2023/04/21 00:34:31;;;;;;;22.73;14.32;;;9.30;99.90;;;;;;4140684;28;20034;-59
2023/04/21 00:36:32;;;;;;;20.77;14.38;;;9.20;99.90;;;;;;4135300;28;20160;-59
2023/04/21 00:38:32;;;;;;;23.35;15.98;;;9.10;99.90;;;;;;4138140;28;20081;-59
2023/04/21 00:40:33;;;;;;;25.00;16.77;;;9.00;99.90;;;;;;4140961;28;20513;-59
2023/04/21 00:42:33;;;;;;;23.75;15.07;;;9.00;99.90;;;;;;4143225;28;20029;-58
2023/04/21 00:44:34;;;;;;;21.65;15.13;;;8.90;99.90;;;;;;4139954;28;20049;-59
2023/04/21 00:46:35;;;;;;;20.63;13.85;;;8.90;99.90;;;;;;4141811;28;20041;-59
2023/04/21 00:48:36;;;;;;;18.98;12.93;;;9.00;99.90;;;;;;4137534;28;20487;-60
2023/04/21 00:50:37;;;;;;;23.02;14.70;;;9.00;99.90;;;;;;4144092;28;20042;-59
2023/04/21 00:52:42;;;;;;;18.00;12.65;;;9.10;99.90;;;;;;4138431;28;20040;-59
2023/04/21 00:54:43;;;;;;;20.52;14.05;;;9.10;99.90;;;;;;4150594;28;20049;-59
2023/04/21 00:56:44;;;;;;;23.60;15.27;;;9.20;99.90;;;;;;4144225;28;20030;-59
2023/04/21 00:58:45;;;;;;;23.20;15.43;;;9.10;99.90;;;;;;4138316;28;20386;-59
2023/04/21 01:00:45;;;;;;;24.63;16.10;;;9.00;99.90;;;;;;4153080;28;20114;-59
2023/04/21 01:02:46;;;;;;;27.42;17.67;;;8.90;99.90;;;;;;4141946;28;20053;-59
2023/04/21 01:04:47;;;;;;;25.05;15.70;;;8.90;99.90;;;;;;4140279;28;20769;-59
2023/04/21 01:06:48;;;;;;;21.50;14.73;;;8.90;99.90;;;;;;4139638;28;20038;-59
2023/04/21 01:08:51;;;;;;;22.65;15.57;;;8.90;99.90;;;;;;4145104;28;20034;-59
2023/04/21 01:10:52;;;;;;;24.80;16.27;;;9.00;99.90;;;;;;4144248;28;20038;-59
2023/04/21 01:12:52;;;;;;;29.08;16.85;;;9.00;99.90;;;;;;4136389;28;20531;-59
2023/04/21 01:14:53;;;;;;;26.40;16.92;;;8.90;99.90;;;;;;4142877;28;20038;-59
2023/04/21 01:16:53;;;;;;;29.45;18.58;;;8.90;99.90;;;;;;4136709;28;20031;-59
2023/04/21 01:18:54;;;;;;;26.98;17.42;;;8.90;99.90;;;;;;4139417;28;20117;-59
2023/04/21 01:20:55;;;;;;;26.17;17.70;;;8.80;99.90;;;;;;4144322;28;20378;-59
2023/04/21 01:22:56;;;;;;;29.52;18.73;;;8.80;99.90;;;;;;4144655;28;20389;-59
2023/04/21 01:24:56;;;;;;;29.90;18.45;;;8.80;99.90;;;;;;4136915;28;20041;-59
2023/04/21 01:26:57;;;;;;;30.75;20.05;;;8.80;99.90;;;;;;4139373;28;20436;-59
2023/04/21 01:28:57;;;;;;;32.05;19.73;;;8.80;99.90;;;;;;4138582;28;20397;-58
2023/04/21 01:30:58;;;;;;;33.10;20.63;;;8.70;99.90;;;;;;4144402;28;20459;-59
2023/04/21 01:32:59;;;;;;;31.67;19.77;;;8.70;99.90;;;;;;4141893;28;20069;-59
2023/04/21 01:35:00;;;;;;;33.80;21.63;;;8.80;99.90;;;;;;4143833;28;20033;-59
2023/04/21 01:37:01;;;;;;;28.10;18.67;;;8.70;99.90;;;;;;4130513;28;20073;-59
2023/04/21 01:39:02;;;;;;;29.58;19.02;;;8.80;99.90;;;;;;4139207;28;20037;-59
2023/04/21 01:41:02;;;;;;;29.50;18.40;;;8.80;99.90;;;;;;4139795;28;20045;-59
2023/04/21 01:43:03;;;;;;;31.92;19.50;;;8.80;99.90;;;;;;4139204;28;20030;-59
2023/04/21 01:45:05;;;;;;;34.25;20.73;;;8.80;99.90;;;;;;4143886;28;20022;-59
2023/04/21 01:47:06;;;;;;;31.40;20.02;;;8.80;99.90;;;;;;4140910;28;20486;-59
2023/04/21 01:49:07;;;;;;;33.47;19.58;;;8.80;99.90;;;;;;4136848;28;20030;-60
2023/04/21 01:51:07;;;;;;;28.00;18.33;;;8.80;99.90;;;;;;4140129;28;20034;-60
2023/04/21 01:53:08;;;;;;;33.05;20.45;;;8.80;99.90;;;;;;4137139;28;20034;-59
2023/04/21 01:55:09;;;;;;;35.67;21.33;;;8.80;99.90;;;;;;4139747;28;20545;-60
2023/04/21 01:57:09;;;;;;;35.13;21.40;;;8.80;99.90;;;;;;4141138;28;20143;-59
2023/04/21 01:59:10;;;;;;;37.50;21.58;;;8.70;99.90;;;;;;4136102;28;20030;-59
2023/04/21 02:01:10;;;;;;;31.85;20.95;;;8.80;99.90;;;;;;4138360;28;20037;-59
2023/04/21 02:03:11;;;;;;;32.42;20.58;;;8.70;99.90;;;;;;4140248;28;20030;-59
2023/04/21 02:05:12;;;;;;;34.20;21.55;;;8.70;99.90;;;;;;4138569;28;20037;-60
2023/04/21 02:07:12;;;;;;;35.10;21.40;;;8.70;99.90;;;;;;4143133;28;20022;-59
2023/04/21 02:09:13;;;;;;;32.67;19.88;;;8.60;99.90;;;;;;4142907;28;20096;-59
2023/04/21 02:11:13;;;;;;;31.73;19.67;;;8.70;99.90;;;;;;4137516;28;20033;-60
2023/04/21 02:13:14;;;;;;;31.65;19.17;;;8.80;99.90;;;;;;4145090;28;20026;-59
2023/04/21 02:15:14;;;;;;;31.20;19.35;;;8.80;99.90;;;;;;4142692;28;20079;-59
2023/04/21 02:17:16;;;;;;;33.13;20.58;;;8.80;99.90;;;;;;4145129;28;20026;-59
2023/04/21 02:19:17;;;;;;;35.63;22.55;;;8.80;99.90;;;;;;4145292;28;20030;-59
2023/04/21 02:21:17;;;;;;;36.90;22.08;;;8.80;99.90;;;;;;4146100;28;20120;-59
2023/04/21 02:23:18;;;;;;;38.05;23.15;;;8.70;99.90;;;;;;4139830;28;20038;-59
2023/04/21 02:25:19;;;;;;;38.20;22.60;;;8.60;99.90;;;;;;4139426;28;20037;-59
2023/04/21 02:27:19;;;;;;;37.05;22.25;;;8.70;99.90;;;;;;4133965;28;20374;-60
2023/04/21 02:29:20;;;;;;;36.60;22.30;;;8.60;99.90;;;;;;4134046;28;20039;-60
2023/04/21 02:31:20;;;;;;;36.03;23.70;;;8.60;99.90;;;;;;4145420;28;20109;-59
2023/04/21 02:33:21;;;;;;;37.13;22.40;;;8.50;99.90;;;;;;4133224;28;20041;-60
2023/04/21 02:35:22;;;;;;;38.95;24.60;;;8.60;99.90;;;;;;4142890;28;20662;-60
2023/04/21 02:37:23;;;;;;;40.17;24.17;;;8.60;99.90;;;;;;4137703;28;20085;-59
2023/04/21 02:39:23;;;;;;;36.65;23.02;;;8.60;99.90;;;;;;4139458;28;20048;-59
2023/04/21 02:41:24;;;;;;;37.85;23.75;;;8.60;99.90;;;;;;4135834;28;20092;-59
2023/04/21 02:43:25;;;;;;;38.33;23.98;;;8.60;99.90;;;;;;4129910;28;20034;-59
2023/04/21 02:45:26;;;;;;;40.22;23.98;;;8.60;99.90;;;;;;4141490;28;20033;-59
2023/04/21 02:47:26;;;;;;;43.72;26.48;;;8.60;99.90;;;;;;4131674;28;20061;-59
2023/04/21 02:49:27;;;;;;;45.85;27.65;;;8.60;99.90;;;;;;4137756;28;20114;-59
2023/04/21 02:51:27;;;;;;;43.63;25.95;;;8.60;99.90;;;;;;4141986;28;20037;-60
2023/04/21 02:53:28;;;;;;;39.45;25.90;;;8.60;99.90;;;;;;4134312;28;20030;-60
2023/04/21 02:55:29;;;;;;;36.00;22.55;;;8.60;99.90;;;;;;4142512;28;20030;-59
2023/04/21 02:57:29;;;;;;;42.88;25.15;;;8.60;99.90;;;;;;4144695;28;20045;-60
2023/04/21 02:59:30;;;;;;;44.05;26.08;;;8.70;99.90;;;;;;4144392;28;20037;-60
2023/04/21 03:01:30;;;;;;;42.42;26.20;;;8.70;99.90;;;;;;4141718;28;20121;-59
2023/04/21 03:03:31;;;;;;;46.10;27.65;;;8.70;99.90;;;;;;4134999;28;20038;-59
2023/04/21 03:05:32;;;;;;;42.28;24.73;;;8.70;99.90;;;;;;4136737;28;20042;-60
2023/04/21 03:07:33;;;;;;;33.60;21.88;;;8.70;99.90;;;;;;4140428;28;20505;-59
2023/04/21 03:09:34;;;;;;;36.05;23.00;;;8.80;99.90;;;;;;4141353;28;20038;-60
2023/04/21 03:11:35;;;;;;;36.13;22.13;;;8.90;99.90;;;;;;4138900;28;20026;-60
2023/04/21 03:13:35;;;;;;;39.13;23.70;;;8.90;99.90;;;;;;4141411;28;20030;-60
2023/04/21 03:15:36;;;;;;;35.65;22.90;;;8.90;99.90;;;;;;4142997;28;20109;-59
2023/04/21 03:17:37;;;;;;;42.58;26.63;;;8.90;99.90;;;;;;4140638;28;20087;-60
2023/04/21 03:19:37;;;;;;;40.90;25.55;;;8.90;99.90;;;;;;4138693;28;20034;-63
2023/04/21 03:21:38;;;;;;;40.53;24.75;;;8.90;99.90;;;;;;4143962;28;20054;-60
2023/04/21 03:23:38;;;;;;;33.75;22.50;;;8.90;99.90;;;;;;4136495;28;20045;-59
2023/04/21 03:25:39;;;;;;;38.53;24.25;;;8.90;99.90;;;;;;4140956;28;20030;-60
2023/04/21 03:27:40;;;;;;;40.03;22.52;;;8.90;99.90;;;;;;4139758;28;20486;-60
2023/04/21 03:29:40;;;;;;;35.78;23.45;;;8.90;99.90;;;;;;4141816;28;20393;-60
2023/04/21 03:31:41;;;;;;;33.92;22.23;;;8.90;99.90;;;;;;4135184;28;20363;-59
2023/04/21 03:33:41;;;;;;;41.08;24.50;;;9.00;99.90;;;;;;4142078;28;20040;-60
2023/04/21 03:35:42;;;;;;;39.17;24.98;;;8.90;99.90;;;;;;4135644;28;20067;-60
2023/04/21 03:37:43;;;;;;;39.38;25.15;;;8.90;99.90;;;;;;4137626;28;20050;-59
2023/04/21 03:39:43;;;;;;;33.67;22.40;;;8.90;99.90;;;;;;4142146;28;20069;-60
2023/04/21 03:41:44;;;;;;;32.95;21.08;;;9.00;99.90;;;;;;4140374;28;20116;-60
2023/04/21 03:43:45;;;;;;;34.90;20.42;;;9.10;99.90;;;;;;4133987;28;20038;-61
2023/04/21 03:45:45;;;;;;;34.83;22.05;;;9.10;99.90;;;;;;4139995;28;20045;-62
2023/04/21 03:47:46;;;;;;;32.53;20.95;;;9.20;99.90;;;;;;4140578;28;20068;-62
2023/04/21 03:49:46;;;;;;;33.90;20.00;;;9.30;99.90;;;;;;4133547;28;20558;-62
2023/04/21 03:51:47;;;;;;;30.52;19.42;;;9.30;99.90;;;;;;4135258;28;20502;-61
2023/04/21 03:53:47;;;;;;;34.22;21.25;;;9.30;99.90;;;;;;4133849;28;20481;-61
2023/04/21 03:55:51;;;;;;;35.45;22.08;;;9.30;99.90;;;;;;4138045;28;20041;-62
2023/04/21 03:57:51;;;;;;;37.13;23.33;;;9.30;99.90;;;;;;4138172;28;20489;-63
2023/04/21 03:59:52;;;;;;;34.55;23.30;;;9.20;99.90;;;;;;4138785;28;20034;-63
2023/04/21 04:01:52;;;;;;;38.05;23.65;;;9.20;99.90;;;;;;4138638;28;20046;-62
2023/04/21 04:03:53;;;;;;;41.95;25.38;;;9.20;99.90;;;;;;4131453;28;20397;-62
2023/04/21 04:05:53;;;;;;;34.08;22.33;;;9.10;99.90;;;;;;4133750;28;20108;-61
2023/04/21 04:07:54;;;;;;;32.83;20.65;;;9.10;99.90;;;;;;4142357;28;20050;-62
2023/04/21 04:09:55;;;;;;;31.73;19.95;;;9.10;99.90;;;;;;4138583;28;20049;-62
2023/04/21 04:11:55;;;;;;;32.53;21.23;;;9.20;99.90;;;;;;4139092;28;20512;-62
2023/04/21 04:13:56;;;;;;;31.67;19.65;;;9.20;99.90;;;;;;4139180;28;20378;-62
2023/04/21 04:15:57;;;;;;;31.45;20.92;;;9.20;99.90;;;;;;4140445;28;20053;-62
2023/04/21 04:17:58;;;;;;;34.05;21.80;;;9.20;99.90;;;;;;4138675;28;20038;-62
2023/04/21 04:19:59;;;;;;;30.85;19.73;;;9.20;99.90;;;;;;4139759;28;20488;-62
2023/04/21 04:22:00;;;;;;;30.65;19.50;;;9.30;99.90;;;;;;4136248;28;20441;-62
2023/04/21 04:24:07;;;;;;;29.63;19.58;;;9.30;99.90;;;;;;4138472;28;20038;-62
2023/04/21 04:26:08;;;;;;;26.92;18.10;;;9.30;99.90;;;;;;4141354;28;20030;-62
2023/04/21 04:28:09;;;;;;;31.35;19.98;;;9.40;99.90;;;;;;4140545;28;20133;-63
2023/04/21 04:30:12;;;;;;;31.58;20.13;;;9.40;99.90;;;;;;4136228;28;20042;-62
2023/04/21 04:32:14;;;;;;;33.13;21.75;;;9.40;99.90;;;;;;4137068;28;20029;-62
2023/04/21 04:34:14;;;;;;;36.10;22.92;;;9.30;99.90;;;;;;4136503;28;20034;-62
2023/04/21 04:36:15;;;;;;;35.00;21.38;;;9.20;99.90;;;;;;4143043;28;20053;-62
2023/04/21 04:38:15;;;;;;;33.22;22.25;;;9.20;99.90;;;;;;4146552;28;20034;-61
2023/04/21 04:40:16;;;;;;;36.55;21.60;;;9.10;99.90;;;;;;4140478;28;20050;-61
2023/04/21 04:42:19;;;;;;;31.45;20.75;;;9.10;99.90;;;;;;4135959;28;20046;-61
2023/04/21 04:44:19;;;;;;;32.20;20.90;;;9.10;99.90;;;;;;4139535;28;20117;-62
2023/04/21 04:46:20;;;;;;;32.03;20.65;;;9.20;99.90;;;;;;4147355;28;20045;-62
2023/04/21 04:48:21;;;;;;;32.22;21.00;;;9.10;99.90;;;;;;4136759;28;20172;-62
2023/04/21 04:50:21;;;;;;;32.30;20.70;;;9.10;99.90;;;;;;4132903;28;20109;-62
2023/04/21 04:52:22;;;;;;;35.63;22.35;;;9.20;99.90;;;;;;4141016;28;20030;-62
2023/04/21 04:54:24;;;;;;;38.42;22.52;;;9.10;99.90;;;;;;4135894;28;20039;-61
2023/04/21 04:56:24;;;;;;;30.88;19.67;;;9.00;99.90;;;;;;4146627;28;20440;-63
2023/04/21 04:58:25;;;;;;;32.80;21.08;;;9.00;99.90;;;;;;4140524;28;20033;-62
2023/04/21 05:00:27;;;;;;;30.27;20.55;;;9.10;99.90;;;;;;4143281;28;20074;-61
2023/04/21 05:02:28;;;;;;;27.98;19.08;;;9.20;99.90;;;;;;4139506;28;20034;-62
2023/04/21 05:04:28;;;;;;;28.33;19.45;;;9.20;99.90;;;;;;4139515;28;20038;-62
2023/04/21 05:06:29;;;;;;;32.65;20.90;;;9.20;99.90;;;;;;4147258;28;20121;-62
2023/04/21 05:08:30;;;;;;;31.75;21.25;;;9.10;99.90;;;;;;4141546;28;20050;-62
2023/04/21 05:10:30;;;;;;;34.95;21.60;;;9.20;99.90;;;;;;4139031;28;20068;-62
2023/04/21 05:12:31;;;;;;;32.42;20.73;;;9.20;99.90;;;;;;4144321;28;20038;-62
2023/04/21 05:14:31;;;;;;;30.67;19.98;;;9.30;99.90;;;;;;4140916;28;20038;-62
2023/04/21 05:16:33;;;;;;;27.65;19.40;;;9.30;99.90;;;;;;4138518;28;20037;-61
2023/04/21 05:18:34;;;;;;;34.47;21.23;;;9.40;99.90;;;;;;4134948;28;20492;-61
2023/04/21 05:20:34;;;;;;;35.33;23.10;;;9.30;99.90;;;;;;4138769;28;20140;-61
2023/04/21 05:22:39;;;;;;;33.60;20.77;;;9.30;99.90;;;;;;4143588;28;20033;-62
2023/04/21 05:24:42;;;;;;;30.88;19.40;;;9.30;99.90;;;;;;4140546;28;20038;-64
2023/04/21 05:26:43;;;;;;;33.05;20.23;;;9.40;99.90;;;;;;4140266;28;20061;-61
2023/04/21 05:28:43;;;;;;;32.45;21.23;;;9.40;99.90;;;;;;4144458;28;20038;-63
2023/04/21 05:30:44;;;;;;;34.58;20.65;;;9.40;99.90;;;;;;4143568;28;20445;-64
2023/04/21 05:32:45;;;;;;;31.50;19.98;;;9.50;99.90;;;;;;4133253;28;20037;-63
2023/04/21 05:34:45;;;;;;;30.48;19.70;;;9.50;99.90;;;;;;4140845;28;20567;-63
2023/04/21 05:36:47;;;;;;;30.20;19.35;;;9.60;99.90;;;;;;4143477;28;20511;-63
2023/04/21 05:38:48;;;;;;;31.20;19.65;;;9.60;99.90;;;;;;4141797;28;20034;-63
2023/04/21 05:40:55;;;;;;;36.15;22.55;;;9.70;99.90;;;;;;4131670;28;20037;-63
2023/04/21 05:42:56;;;;;;;33.45;20.52;;;9.70;99.90;;;;;;4133693;28;20037;-62
2023/04/21 05:44:56;;;;;;;40.75;24.42;;;9.70;99.90;;;;;;4134375;28;20068;-61
2023/04/21 05:46:57;;;;;;;36.72;23.40;;;9.60;99.90;;;;;;4130594;28;20121;-61
2023/04/21 05:48:58;;;;;;;35.25;22.00;;;9.60;99.90;;;;;;4138178;28;20504;-61
2023/04/21 05:51:08;;;;;;;36.03;22.15;;;9.70;99.90;;;;;;4137244;28;20105;-61
2023/04/21 05:53:08;;;;;;;37.65;23.63;;;9.70;99.90;;;;;;4141034;28;20034;-61
2023/04/21 05:55:09;;;;;;;31.15;21.17;;;9.70;99.90;;;;;;4142018;28;20057;-62
2023/04/21 05:57:10;;;;;;;36.90;22.98;;;9.80;99.90;;;;;;4143173;28;20033;-65
2023/04/21 05:59:10;;;;;;;36.92;23.10;;;9.80;99.90;;;;;;4135140;28;20034;-62
2023/04/21 06:01:11;;;;;;;36.65;23.95;;;9.80;99.90;;;;;;4142705;28;20100;-61
2023/04/21 06:03:12;;;;;;;37.40;23.08;;;9.80;99.90;;;;;;4143015;28;20080;-60
2023/04/21 06:05:13;;;;;;;41.50;25.35;;;9.80;99.90;;;;;;4142492;28;20389;-61
2023/04/21 06:07:13;;;;;;;32.92;21.65;;;9.90;99.90;;;;;;4139365;28;20444;-61
2023/04/21 06:09:14;;;;;;;32.70;20.45;;;10.00;99.90;;;;;;4141748;28;20040;-61
2023/04/21 06:11:15;;;;;;;40.42;23.85;;;10.00;99.90;;;;;;4142115;28;20029;-60
2023/04/21 06:13:15;;;;;;;32.95;20.92;;;10.00;99.90;;;;;;4141257;28;20041;-60
2023/04/21 06:15:16;;;;;;;33.75;20.63;;;10.10;99.90;;;;;;4139975;28;20072;-60
2023/04/21 06:17:17;;;;;;;34.65;22.40;;;10.10;99.90;;;;;;4142077;28;20076;-60
2023/04/21 06:19:17;;;;;;;34.03;21.55;;;10.20;99.90;;;;;;4143833;28;20034;-59
2023/04/21 06:21:18;;;;;;;34.33;21.90;;;10.30;99.90;;;;;;4141234;28;20022;-61
2023/04/21 06:23:19;;;;;;;33.78;22.15;;;10.30;99.90;;;;;;4129636;28;20026;-61
2023/04/21 06:25:20;;;;;;;34.38;21.63;;;10.30;99.90;;;;;;4140778;28;20133;-60
2023/04/21 06:27:20;;;;;;;31.75;21.13;;;10.40;99.90;;;;;;4140526;28;20425;-61
2023/04/21 06:29:21;;;;;;;33.35;20.50;;;10.40;99.90;;;;;;4141972;28;20173;-60
2023/04/21 06:31:21;;;;;;;30.13;20.17;;;10.50;99.90;;;;;;4140523;28;20040;-61
2023/04/21 06:33:22;;;;;;;31.63;20.48;;;10.50;99.90;;;;;;4136755;28;20496;-61
2023/04/21 06:35:22;;;;;;;32.42;19.55;;;10.60;99.90;;;;;;4135665;28;20484;-61
2023/04/21 06:37:23;;;;;;;30.20;19.98;;;10.70;99.90;;;;;;4141605;28;20481;-60
2023/04/21 06:39:24;;;;;;;31.70;19.95;;;10.70;99.90;;;;;;4137190;28;20038;-61
2023/04/21 06:41:25;;;;;;;32.22;21.70;;;10.70;99.90;;;;;;4137946;28;20025;-61
2023/04/21 06:43:25;;;;;;;31.60;21.58;;;10.70;99.90;;;;;;4137605;28;20026;-61
2023/04/21 06:45:26;;;;;;;33.53;21.55;;;10.70;99.90;;;;;;4128683;28;20129;-63
2023/04/21 06:47:26;;;;;;;30.30;20.95;;;10.80;99.90;;;;;;4138670;28;20026;-62
2023/04/21 06:49:27;;;;;;;29.80;19.50;;;10.90;99.90;;;;;;4141590;28;20124;-62
2023/04/21 06:51:27;;;;;;;29.02;19.40;;;11.10;99.90;;;;;;4142090;28;20121;-61
2023/04/21 06:53:28;;;;;;;33.90;22.23;;;11.30;99.90;;;;;;4142518;28;20049;-64
2023/04/21 06:55:29;;;;;;;33.13;20.80;;;11.40;99.90;;;;;;4140055;28;20034;-64
2023/04/21 06:57:29;;;;;;;27.13;18.52;;;11.40;99.90;;;;;;4143508;28;20034;-62
2023/04/21 06:59:30;;;;;;;26.08;17.55;;;11.50;99.90;;;;;;4139815;28;22383;-61
2023/04/21 07:01:31;;;;;;;27.75;18.58;;;11.70;99.90;;;;;;4135058;28;20081;-62
2023/04/21 07:03:31;;;;;;;26.17;17.73;;;11.80;99.90;;;;;;4142233;28;20038;-61
2023/04/21 07:05:32;;;;;;;27.38;18.63;;;12.10;99.90;;;;;;4138980;28;20035;-61
2023/04/21 07:07:33;;;;;;;27.42;18.95;;;12.20;99.90;;;;;;4135659;28;20477;-61
2023/04/21 07:09:33;;;;;;;25.05;17.38;;;12.30;99.90;;;;;;4143201;28;20049;-61
2023/04/21 07:11:34;;;;;;;27.35;18.05;;;12.40;99.90;;;;;;4141496;28;20033;-61
2023/04/21 07:13:34;;;;;;;27.70;18.17;;;12.60;99.90;;;;;;4129542;28;20113;-62
2023/04/21 07:15:35;;;;;;;25.13;17.27;;;12.70;99.90;;;;;;4135656;28;20030;-63
2023/04/21 07:17:36;;;;;;;25.55;17.25;;;12.90;99.90;;;;;;4140888;28;20026;-62
2023/04/21 07:19:36;;;;;;;28.92;17.80;;;13.00;99.90;;;;;;4141464;28;20049;-62
2023/04/21 07:21:37;;;;;;;21.25;15.73;;;13.00;99.90;;;;;;4136621;28;20054;-63
2023/04/21 07:23:37;;;;;;;23.05;16.45;;;13.00;99.90;;;;;;4140614;28;20050;-62
2023/04/21 07:25:38;;;;;;;22.90;16.00;;;13.00;99.90;;;;;;4140391;28;20026;-63
2023/04/21 07:27:38;;;;;;;23.02;16.52;;;13.00;99.90;;;;;;4140467;28;20030;-62
2023/04/21 07:29:39;;;;;;;22.33;15.20;;;13.00;99.90;;;;;;4142057;28;20045;-63
2023/04/21 07:31:40;;;;;;;23.05;15.20;;;13.00;99.90;;;;;;4141437;28;20037;-63
2023/04/21 07:33:40;;;;;;;22.70;15.75;;;13.10;99.90;;;;;;4139486;28;20056;-63
2023/04/21 07:35:41;;;;;;;25.98;16.52;;;13.10;99.90;;;;;;4141725;28;20065;-62
2023/04/21 07:37:42;;;;;;;25.75;17.73;;;13.10;99.90;;;;;;4141699;28;20049;-64
2023/04/21 07:39:42;;;;;;;20.48;14.82;;;13.10;99.90;;;;;;4139422;28;20632;-63
2023/04/21 07:41:43;;;;;;;21.67;14.85;;;13.10;99.90;;;;;;4141577;28;20082;-62
2023/04/21 07:43:43;;;;;;;23.15;15.30;;;13.20;99.90;;;;;;4142667;28;20509;-63
2023/04/21 07:45:45;;;;;;;23.73;17.13;;;13.20;99.90;;;;;;4137646;28;20389;-63
2023/04/21 07:47:45;;;;;;;21.65;14.77;;;13.20;99.90;;;;;;4139253;28;20041;-63
2023/04/21 07:49:46;;;;;;;23.90;16.23;;;13.20;99.90;;;;;;4140775;28;20041;-63
2023/04/21 07:51:46;;;;;;;23.48;16.42;;;13.20;99.90;;;;;;4141431;28;20033;-63
2023/04/21 07:53:47;;;;;;;21.30;15.20;;;13.20;99.90;;;;;;4143995;28;20038;-62
2023/04/21 07:55:47;;;;;;;27.10;18.00;;;13.20;99.90;;;;;;4143158;28;20036;-62
2023/04/21 07:57:49;;;;;;;25.10;16.88;;;13.20;99.90;;;;;;4140296;28;20026;-62
2023/04/21 07:59:49;;;;;;;25.73;15.90;;;13.20;99.90;;;;;;4142166;28;20026;-62
2023/04/21 08:01:50;;;;;;;27.70;18.10;;;13.20;99.90;;;;;;4128175;28;20046;-62
2023/04/21 08:03:51;;;;;;;26.85;17.83;;;13.20;99.90;;;;;;4129625;28;20034;-62
2023/04/21 08:05:51;;;;;;;21.80;15.43;;;13.20;99.90;;;;;;4128235;28;20482;-62
2023/04/21 08:07:52;;;;;;;26.13;16.75;;;13.20;99.90;;;;;;4140320;28;20034;-62
2023/04/21 08:09:52;;;;;;;24.33;17.75;;;13.30;99.90;;;;;;4144365;28;20469;-61
2023/04/21 08:11:53;;;;;;;27.50;18.23;;;13.30;99.90;;;;;;4135978;28;20040;-62
2023/04/21 08:13:54;;;;;;;25.42;17.50;;;13.30;99.90;;;;;;4145079;28;20026;-64
2023/04/21 08:15:55;;;;;;;24.17;16.27;;;13.30;99.90;;;;;;4143752;28;20040;-62
2023/04/21 08:17:55;;;;;;;24.65;16.95;;;13.40;99.90;;;;;;4143032;28;20032;-62
2023/04/21 08:19:56;;;;;;;27.40;17.30;;;13.40;99.90;;;;;;4144806;28;20036;-62
2023/04/21 08:21:57;;;;;;;25.10;17.08;;;13.30;99.90;;;;;;4143251;28;20125;-62
2023/04/21 08:23:58;;;;;;;24.35;16.85;;;13.30;99.90;;;;;;4145447;28;20213;-63
2023/04/21 08:26:00;;;;;;;21.58;15.00;;;13.30;99.90;;;;;;4144029;28;20041;-63
2023/04/21 08:28:01;;;;;;;19.58;14.50;;;13.30;99.90;;;;;;4143645;28;20531;-63
2023/04/21 08:30:02;;;;;;;19.40;14.10;;;13.40;99.90;;;;;;4144776;28;20042;-63
2023/04/21 08:32:03;;;;;;;21.70;15.43;;;13.40;99.90;;;;;;4143602;28;20037;-62
2023/04/21 08:34:03;;;;;;;25.50;17.50;;;13.40;99.90;;;;;;4144057;28;20030;-62
2023/04/21 08:36:04;;;;;;;25.00;17.73;;;13.50;99.90;;;;;;4139440;28;20057;-63
2023/04/21 08:38:05;;;;;;;26.92;17.80;;;13.40;99.90;;;;;;4142689;28;20515;-63
2023/04/21 08:40:06;;;;;;;22.65;16.05;;;13.40;99.90;;;;;;4144092;28;20050;-64
2023/04/21 08:42:07;;;;;;;22.70;14.95;;;13.40;99.90;;;;;;4133742;28;20042;-62
2023/04/21 08:44:10;;;;;;;26.23;17.58;;;13.50;99.90;;;;;;4144978;28;20026;-63
2023/04/21 08:46:11;;;;;;;24.20;16.83;;;13.50;99.90;;;;;;4138407;28;20030;-63
2023/04/21 08:48:17;;;;;;;26.98;18.15;;;13.60;99.90;;;;;;4140885;28;20026;-63
2023/04/21 08:50:18;;;;;;;27.15;17.98;;;13.60;99.90;;;;;;4143197;28;20044;-62
2023/04/21 08:52:18;;;;;;;34.15;21.80;;;13.60;99.90;;;;;;4144536;28;20026;-62
2023/04/21 08:54:20;;;;;;;32.40;20.77;;;13.20;99.90;;;;;;4144750;28;20037;-62
2023/04/21 08:56:23;;;;;;;29.20;20.03;;;13.20;99.90;;;;;;4130602;28;20045;-63
2023/04/21 08:58:23;;;;;;;30.00;20.70;;;13.10;99.90;;;;;;4137820;28;20030;-63
2023/04/21 09:00:24;;;;;;;33.25;21.70;;;13.10;99.90;;;;;;4143681;28;20104;-62
2023/04/21 09:02:25;;;;;;;32.58;21.05;;;13.00;99.90;;;;;;4140843;28;20037;-62
2023/04/21 09:04:29;;;;;;;32.83;21.13;;;12.90;99.90;;;;;;4142276;28;20037;-62
2023/04/21 09:06:42;;;;;;;27.05;18.48;;;12.70;99.90;;;;;;4140466;28;20069;-63
2023/04/21 09:08:52;;;;;;;24.10;16.58;;;12.80;99.90;;;;;;4144148;28;20051;-62
2023/04/21 09:10:53;;;;;;;31.05;19.08;;;12.90;99.90;;;;;;4143370;28;20036;-62
2023/04/21 09:12:54;;;;;;;31.23;18.80;;;12.90;99.90;;;;;;4142351;28;20065;-62
2023/04/21 09:14:59;;;;;;;28.75;18.15;;;12.90;99.90;;;;;;4143300;28;20053;-62
2023/04/21 09:17:02;;;;;;;30.80;19.48;;;13.10;99.90;;;;;;4144513;28;20041;-63
2023/04/21 09:19:14;;;;;;;30.58;18.75;;;13.10;99.90;;;;;;4144182;28;20042;-63
2023/04/21 09:21:17;;;;;;;29.88;18.98;;;13.10;99.90;;;;;;4142111;28;20121;-63
2023/04/21 09:23:19;;;;;;;28.50;18.73;;;13.10;99.90;;;;;;4143437;28;20057;-63
2023/04/21 09:25:21;;;;;;;27.67;17.33;;;13.00;99.90;;;;;;4142018;28;20038;-62
2023/04/21 09:27:22;;;;;;;24.25;16.65;;;13.00;99.90;;;;;;4142445;28;20026;-63
2023/04/21 09:29:23;;;;;;;29.00;18.40;;;13.10;99.90;;;;;;4143602;28;20026;-63
2023/04/21 09:31:24;;;;;;;26.17;17.27;;;13.10;99.90;;;;;;4136316;28;20042;-63
2023/04/21 09:33:24;;;;;;;27.80;18.20;;;13.10;99.90;;;;;;4143775;28;20033;-62
2023/04/21 09:35:31;;;;;;;23.70;14.77;;;13.20;99.90;;;;;;4139030;28;20049;-63
2023/04/21 09:37:33;;;;;;;28.50;18.23;;;13.30;99.90;;;;;;4143735;28;20041;-64
2023/04/21 09:39:34;;;;;;;29.30;18.10;;;13.30;99.90;;;;;;4143037;28;20442;-63
2023/04/21 09:41:34;;;;;;;30.75;18.60;;;13.30;99.90;;;;;;4141988;28;20030;-63
2023/04/21 09:43:35;;;;;;;25.50;15.73;;;13.30;99.90;;;;;;4143125;28;20026;-63
2023/04/21 09:45:36;;;;;;;23.40;15.23;;;13.40;99.90;;;;;;4142797;28;20068;-63
2023/04/21 09:47:41;;;;;;;32.50;18.30;;;13.40;99.90;;;;;;4143193;28;20080;-63
2023/04/21 09:49:43;;;;;;;31.10;17.38;;;13.40;99.90;;;;;;4142843;28;20049;-63
2023/04/21 09:51:45;;;;;;;25.92;16.35;;;13.40;99.90;;;;;;4142530;28;20096;-65
2023/04/21 09:53:48;;;;;;;34.22;19.27;;;13.40;99.90;;;;;;4141268;28;20229;-63
2023/04/21 09:55:52;;;;;;;30.13;18.13;;;13.40;99.90;;;;;;4142861;28;20030;-64
2023/04/21 09:57:58;;;;;;;32.17;18.23;;;13.50;99.90;;;;;;4143154;28;20041;-65
2023/04/21 10:00:08;;;;;;;28.15;17.75;;;13.40;99.90;;;;;;4127636;28;20125;-64
2023/04/21 10:02:11;;;;;;;23.73;14.77;;;13.40;99.90;;;;;;4141661;28;20436;-62
2023/04/21 10:04:12;;;;;;;;;;;13.40;99.90;;;;;;4143134;28;20057;-62
2023/04/21 10:06:13;;;;;;;23.70;14.63;;;13.50;99.90;;;;;;4142468;28;19909;-63
2023/04/21 10:08:15;;;;;;;24.85;15.32;;;13.50;99.90;;;;;;4154743;28;20040;-63
2023/04/21 10:10:25;;;;;;;23.20;15.07;;;13.60;99.90;;;;;;4141647;28;20540;-64
2023/04/21 10:12:26;;;;;;;23.23;14.57;;;13.60;99.90;;;;;;4127219;28;20045;-63
2023/04/21 10:14:27;;;;;;;27.67;18.10;;;13.70;99.90;;;;;;4134807;28;20037;-63
2023/04/21 10:16:27;;;;;;;25.55;17.13;;;13.80;99.90;;;;;;4136333;28;20556;-63
2023/04/21 10:18:28;;;;;;;24.63;16.73;;;13.70;99.90;;;;;;4142440;28;20052;-63